Adrar, Algeria
Current Conditions -  °F | °C
As of 11:00 PM on Thursday 20 Nov 2014 (Local Time) from DAUA Reporting Station
Clear Clear  
Wind Chill: 73°   Ceiling: Unl
Heat Index: 73°   Visibility: 6mi
Dew Point: 30°   Wind: 16mph
Humidity: 20%   Direction: 90°E
Pressure: 30"   Gusts: NA
Location:  27.87°N, 0.29°W
Report Text: DAUA 202200Z 09014KT CAVOK 23/M01 Q1016
Loading
Personal Weather Stations






























Interactive Weather Map New forecast layout! Learn more

10-Day Weather Forecast

Advertisements
Track Severe Weather on mobile